CCA5631 ZSPD-ZSNJ
Flight info
| Callsign | CCA5631 |
|---|---|
| Flight time | 0h 31m |
| Altitude | 15700 |
| Route | K0622S0480 SAS94D SASAN R343 ESBAG ESB52F |
| Aircraft | B772/H-SDE2E3FGHIJ5LORVWXY/LB1D1 |
Departure
| Time | 2026-05-06 04:34 |
|---|---|
| Airport | Shanghai Pudong International Airport (ZSPD) |
Arrival
| Time | 2026-05-06 05:05 |
|---|---|
| Airport | Nanjing Lukou International Airport (ZSNJ) |
| Time | Latitude | Longitude | Altitude | Speed | Heading |
|---|---|---|---|---|---|
| 2026-05-06 04:25 | 31.13376 | 121.81680 | 26 ft | 0 kts | 73° |
| 2026-05-06 04:28 | 31.13375 | 121.81677 | 26 ft | 2 kts | 73° |
| 2026-05-06 04:28 | 31.13372 | 121.81659 | 25 ft | 2 kts | 85° |
| 2026-05-06 04:28 | 31.13372 | 121.81642 | 25 ft | 2 kts | 97° |
| 2026-05-06 04:29 | 31.13375 | 121.81625 | 25 ft | 2 kts | 109° |
| 2026-05-06 04:29 | 31.13381 | 121.81609 | 25 ft | 2 kts | 120° |
| 2026-05-06 04:29 | 31.13389 | 121.81595 | 25 ft | 2 kts | 131° |
| 2026-05-06 04:29 | 31.13400 | 121.81583 | 25 ft | 2 kts | 143° |
| 2026-05-06 04:30 | 31.13413 | 121.81573 | 25 ft | 2 kts | 155° |
| 2026-05-06 04:30 | 31.13421 | 121.81569 | 25 ft | 0 kts | 162° |
| 2026-05-06 04:30 | 31.13424 | 121.81568 | 25 ft | 0 kts | 163° |
| 2026-05-06 04:31 | 31.13413 | 121.81572 | 25 ft | 5 kts | 163° |
| 2026-05-06 04:31 | 31.13351 | 121.81604 | 25 ft | 14 kts | 141° |
| 2026-05-06 04:31 | 31.13321 | 121.81737 | 27 ft | 20 kts | 117° |
| 2026-05-06 04:32 | 31.13189 | 121.81845 | 29 ft | 27 kts | 154° |
| 2026-05-06 04:32 | 31.13007 | 121.81935 | 27 ft | 26 kts | 160° |
| 2026-05-06 04:32 | 31.12807 | 121.82021 | 25 ft | 32 kts | 162° |
| 2026-05-06 04:32 | 31.12612 | 121.82105 | 25 ft | 25 kts | 143° |
| 2026-05-06 04:33 | 31.12622 | 121.82302 | 25 ft | 27 kts | 71° |
| 2026-05-06 04:33 | 31.12697 | 121.82378 | 26 ft | 0 kts | 339° |
| 2026-05-06 04:33 | 31.12709 | 121.82373 | 26 ft | 14 kts | 339° |
| 2026-05-06 04:33 | 31.13210 | 121.82179 | 29 ft | 135 kts | 343° |
| 2026-05-06 04:34 | 31.14265 | 121.81807 | 847 ft | 168 kts | 341° |
| 2026-05-06 04:34 | 31.15245 | 121.81426 | 2079 ft | 151 kts | 341° |
| 2026-05-06 04:34 | 31.16298 | 121.81035 | 2643 ft | 168 kts | 348° |
| 2026-05-06 04:34 | 31.17518 | 121.81070 | 3035 ft | 184 kts | 10° |
| 2026-05-06 04:35 | 31.18832 | 121.81311 | 3627 ft | 199 kts | 11° |
| 2026-05-06 04:35 | 31.20227 | 121.81566 | 4230 ft | 213 kts | 7° |
| 2026-05-06 04:35 | 31.21720 | 121.81261 | 4869 ft | 228 kts | 329° |
| 2026-05-06 04:35 | 31.22792 | 121.79860 | 5488 ft | 242 kts | 290° |
| 2026-05-06 04:36 | 31.23162 | 121.77924 | 6159 ft | 257 kts | 277° |
| 2026-05-06 04:36 | 31.23424 | 121.75809 | 6877 ft | 271 kts | 277° |
| 2026-05-06 04:36 | 31.23687 | 121.73629 | 7817 ft | 276 kts | 278° |
| 2026-05-06 04:36 | 31.23956 | 121.71397 | 8801 ft | 279 kts | 278° |
| 2026-05-06 04:37 | 31.24224 | 121.69164 | 9749 ft | 283 kts | 278° |
| 2026-05-06 04:37 | 31.24497 | 121.66895 | 10498 ft | 292 kts | 278° |
| 2026-05-06 04:37 | 31.24790 | 121.64459 | 11073 ft | 308 kts | 279° |
| 2026-05-06 04:37 | 31.25087 | 121.61980 | 11917 ft | 316 kts | 279° |
| 2026-05-06 04:38 | 31.25389 | 121.59452 | 12933 ft | 318 kts | 279° |
| 2026-05-06 04:38 | 31.25696 | 121.56879 | 13851 ft | 325 kts | 279° |
| 2026-05-06 04:38 | 31.26016 | 121.54200 | 14515 ft | 340 kts | 279° |
| 2026-05-06 04:38 | 31.26348 | 121.51415 | 15159 ft | 354 kts | 279° |
| 2026-05-06 04:39 | 31.26695 | 121.48502 | 15616 ft | 375 kts | 279° |
| 2026-05-06 04:39 | 31.27062 | 121.45416 | 15707 ft | 397 kts | 279° |
| 2026-05-06 04:39 | 31.27441 | 121.42197 | 15674 ft | 402 kts | 279° |
| 2026-05-06 04:39 | 31.27820 | 121.38975 | 15690 ft | 402 kts | 279° |
| 2026-05-06 04:40 | 31.28204 | 121.35698 | 15695 ft | 402 kts | 279° |
| 2026-05-06 04:40 | 31.28730 | 121.32546 | 15742 ft | 402 kts | 287° |
| 2026-05-06 04:40 | 31.29607 | 121.29454 | 15682 ft | 401 kts | 290° |
| 2026-05-06 04:40 | 31.30532 | 121.26389 | 15691 ft | 401 kts | 290° |
| 2026-05-06 04:41 | 31.31471 | 121.23280 | 15702 ft | 401 kts | 290° |
| 2026-05-06 04:41 | 31.32393 | 121.20224 | 15664 ft | 400 kts | 290° |
| 2026-05-06 04:41 | 31.33316 | 121.17156 | 15712 ft | 401 kts | 290° |
| 2026-05-06 04:41 | 31.34239 | 121.14086 | 15693 ft | 401 kts | 290° |
| 2026-05-06 04:42 | 31.35161 | 121.11011 | 15695 ft | 401 kts | 290° |
| 2026-05-06 04:42 | 31.36103 | 121.07903 | 15688 ft | 401 kts | 290° |
| 2026-05-06 04:42 | 31.37034 | 121.04847 | 15653 ft | 401 kts | 290° |
| 2026-05-06 04:42 | 31.37974 | 121.01759 | 15670 ft | 402 kts | 290° |
| 2026-05-06 04:43 | 31.38902 | 120.98706 | 15666 ft | 402 kts | 290° |
| 2026-05-06 04:43 | 31.39842 | 120.95607 | 15665 ft | 401 kts | 290° |
| 2026-05-06 04:43 | 31.40770 | 120.92548 | 15659 ft | 401 kts | 290° |
| 2026-05-06 04:43 | 31.41702 | 120.89468 | 15662 ft | 401 kts | 290° |
| 2026-05-06 04:44 | 31.42636 | 120.86379 | 15669 ft | 401 kts | 290° |
| 2026-05-06 04:44 | 31.43563 | 120.83313 | 15660 ft | 400 kts | 290° |
| 2026-05-06 04:44 | 31.44484 | 120.80261 | 15656 ft | 400 kts | 290° |
| 2026-05-06 04:44 | 31.45414 | 120.77176 | 15655 ft | 400 kts | 290° |
| 2026-05-06 04:45 | 31.46350 | 120.74069 | 15657 ft | 400 kts | 290° |
| 2026-05-06 04:45 | 31.47264 | 120.71031 | 15653 ft | 400 kts | 290° |
| 2026-05-06 04:45 | 31.48196 | 120.67930 | 15651 ft | 400 kts | 290° |
| 2026-05-06 04:45 | 31.49111 | 120.64883 | 15649 ft | 400 kts | 290° |
| 2026-05-06 04:46 | 31.50037 | 120.61797 | 15654 ft | 401 kts | 290° |
| 2026-05-06 04:46 | 31.50968 | 120.58690 | 15647 ft | 401 kts | 290° |
| 2026-05-06 04:46 | 31.51884 | 120.55630 | 15649 ft | 401 kts | 290° |
| 2026-05-06 04:46 | 31.52809 | 120.52537 | 15646 ft | 401 kts | 290° |
| 2026-05-06 04:47 | 31.53729 | 120.49461 | 15642 ft | 401 kts | 290° |
| 2026-05-06 04:47 | 31.54641 | 120.46401 | 15649 ft | 401 kts | 290° |
| 2026-05-06 04:47 | 31.55560 | 120.43321 | 15641 ft | 391 kts | 290° |
| 2026-05-06 04:47 | 31.56430 | 120.40398 | 15639 ft | 371 kts | 290° |
| 2026-05-06 04:48 | 31.57267 | 120.37588 | 15641 ft | 362 kts | 290° |
| 2026-05-06 04:48 | 31.58089 | 120.34821 | 15641 ft | 358 kts | 289° |
| 2026-05-06 04:48 | 31.58812 | 120.32004 | 15643 ft | 357 kts | 281° |
| 2026-05-06 04:48 | 31.59077 | 120.29105 | 15644 ft | 358 kts | 275° |
| 2026-05-06 04:49 | 31.59233 | 120.26196 | 15536 ft | 360 kts | 274° |
| 2026-05-06 04:49 | 31.59378 | 120.23283 | 15261 ft | 358 kts | 274° |
| 2026-05-06 04:49 | 31.59521 | 120.20379 | 14976 ft | 356 kts | 274° |
| 2026-05-06 04:49 | 31.59663 | 120.17477 | 14688 ft | 355 kts | 274° |
| 2026-05-06 04:50 | 31.59805 | 120.14586 | 14401 ft | 354 kts | 274° |
| 2026-05-06 04:50 | 31.59944 | 120.11728 | 14112 ft | 353 kts | 274° |
| 2026-05-06 04:50 | 31.60084 | 120.08836 | 13822 ft | 352 kts | 274° |
| 2026-05-06 04:50 | 31.60223 | 120.05965 | 13537 ft | 352 kts | 274° |
| 2026-05-06 04:51 | 31.60359 | 120.03136 | 13251 ft | 351 kts | 274° |
| 2026-05-06 04:51 | 31.60496 | 120.00276 | 12963 ft | 350 kts | 274° |
| 2026-05-06 04:51 | 31.60631 | 119.97441 | 12675 ft | 348 kts | 274° |
| 2026-05-06 04:51 | 31.60766 | 119.94603 | 12386 ft | 345 kts | 274° |
| 2026-05-06 04:52 | 31.60898 | 119.91800 | 12104 ft | 342 kts | 274° |
| 2026-05-06 04:52 | 31.61028 | 119.89024 | 11814 ft | 342 kts | 274° |
| 2026-05-06 04:52 | 31.61159 | 119.86233 | 11523 ft | 340 kts | 273° |
| 2026-05-06 04:52 | 31.61286 | 119.83501 | 11245 ft | 338 kts | 273° |
| 2026-05-06 04:53 | 31.61414 | 119.80738 | 10961 ft | 337 kts | 273° |
| 2026-05-06 04:53 | 31.61539 | 119.78020 | 10677 ft | 336 kts | 273° |
| 2026-05-06 04:53 | 31.61664 | 119.75297 | 10389 ft | 333 kts | 273° |
| 2026-05-06 04:53 | 31.61789 | 119.72578 | 10097 ft | 333 kts | 273° |
| 2026-05-06 04:54 | 31.61911 | 119.69893 | 9812 ft | 331 kts | 273° |
| 2026-05-06 04:54 | 31.62175 | 119.67216 | 9518 ft | 328 kts | 283° |
| 2026-05-06 04:54 | 31.62904 | 119.64670 | 9233 ft | 329 kts | 290° |
| 2026-05-06 04:54 | 31.63735 | 119.62206 | 8947 ft | 328 kts | 291° |
| 2026-05-06 04:55 | 31.64590 | 119.59709 | 8657 ft | 327 kts | 291° |
| 2026-05-06 04:55 | 31.65433 | 119.57230 | 8371 ft | 327 kts | 290° |
| 2026-05-06 04:55 | 31.66269 | 119.54761 | 8088 ft | 325 kts | 290° |
| 2026-05-06 04:55 | 31.67094 | 119.52319 | 7800 ft | 324 kts | 290° |
| 2026-05-06 04:56 | 31.67923 | 119.49860 | 7505 ft | 324 kts | 290° |
| 2026-05-06 04:56 | 31.68753 | 119.47400 | 7212 ft | 323 kts | 290° |
| 2026-05-06 04:56 | 31.69584 | 119.44930 | 6919 ft | 323 kts | 290° |
| 2026-05-06 04:56 | 31.70403 | 119.42497 | 6634 ft | 322 kts | 290° |
| 2026-05-06 04:57 | 31.71217 | 119.40074 | 6350 ft | 320 kts | 290° |
| 2026-05-06 04:57 | 31.72036 | 119.37636 | 6059 ft | 320 kts | 290° |
| 2026-05-06 04:57 | 31.72848 | 119.35217 | 5769 ft | 312 kts | 290° |
| 2026-05-06 04:57 | 31.73628 | 119.32893 | 5492 ft | 305 kts | 289° |
| 2026-05-06 04:58 | 31.74402 | 119.30596 | 5210 ft | 299 kts | 290° |
| 2026-05-06 04:58 | 31.75170 | 119.28330 | 4920 ft | 293 kts | 290° |
| 2026-05-06 04:58 | 31.75905 | 119.26160 | 4624 ft | 285 kts | 289° |
| 2026-05-06 04:58 | 31.76630 | 119.24019 | 4338 ft | 277 kts | 289° |
| 2026-05-06 04:59 | 31.77335 | 119.21929 | 4058 ft | 269 kts | 289° |
| 2026-05-06 04:59 | 31.78017 | 119.19910 | 3779 ft | 263 kts | 289° |
| 2026-05-06 04:59 | 31.78679 | 119.17940 | 3488 ft | 258 kts | 287° |
| 2026-05-06 04:59 | 31.79155 | 119.15959 | 3200 ft | 247 kts | 281° |
| 2026-05-06 05:00 | 31.79522 | 119.14024 | 2920 ft | 240 kts | 280° |
| 2026-05-06 05:00 | 31.79874 | 119.12135 | 2641 ft | 234 kts | 279° |
| 2026-05-06 05:00 | 31.80220 | 119.10294 | 2363 ft | 229 kts | 280° |
| 2026-05-06 05:00 | 31.80563 | 119.08477 | 2092 ft | 227 kts | 279° |
| 2026-05-06 05:01 | 31.80902 | 119.06682 | 1885 ft | 222 kts | 279° |
| 2026-05-06 05:01 | 31.81214 | 119.04971 | 1854 ft | 209 kts | 274° |
| 2026-05-06 05:01 | 31.81060 | 119.03370 | 1848 ft | 191 kts | 251° |
| 2026-05-06 05:01 | 31.80572 | 119.01995 | 1862 ft | 173 kts | 237° |
| 2026-05-06 05:02 | 31.79935 | 119.00818 | 1856 ft | 167 kts | 234° |
| 2026-05-06 05:02 | 31.79320 | 118.99696 | 1857 ft | 164 kts | 234° |
| 2026-05-06 05:02 | 31.78717 | 118.98566 | 1851 ft | 156 kts | 234° |
| 2026-05-06 05:02 | 31.78159 | 118.97523 | 1835 ft | 147 kts | 234° |
| 2026-05-06 05:03 | 31.77623 | 118.96523 | 1654 ft | 142 kts | 234° |
| 2026-05-06 05:03 | 31.77096 | 118.95538 | 1484 ft | 141 kts | 234° |
| 2026-05-06 05:03 | 31.76583 | 118.94578 | 1308 ft | 137 kts | 234° |
| 2026-05-06 05:03 | 31.76078 | 118.93630 | 1140 ft | 136 kts | 235° |
| 2026-05-06 05:04 | 31.75571 | 118.92703 | 962 ft | 135 kts | 235° |
| 2026-05-06 05:04 | 31.75072 | 118.91765 | 795 ft | 134 kts | 234° |
| 2026-05-06 05:04 | 31.74563 | 118.90857 | 627 ft | 132 kts | 237° |
| 2026-05-06 05:04 | 31.74102 | 118.89925 | 443 ft | 132 kts | 235° |
| 2026-05-06 05:05 | 31.73598 | 118.89032 | 264 ft | 131 kts | 238° |
| 2026-05-06 05:05 | 31.73111 | 118.88127 | 104 ft | 129 kts | 239° |
| 2026-05-06 05:05 | 31.72664 | 118.87254 | 63 ft | 116 kts | 242° |
| 2026-05-06 05:05 | 31.72367 | 118.86706 | 63 ft | 45 kts | 241° |
| 2026-05-06 05:06 | 31.72295 | 118.86434 | 63 ft | 7 kts | 266° |
| 2026-05-06 05:06 | 31.72295 | 118.86426 | 63 ft | 0 kts | 266° |
| 2026-05-06 05:06 | 31.72294 | 118.86414 | 63 ft | 4 kts | 268° |
| 2026-05-06 05:06 | 31.72318 | 118.86351 | 63 ft | 12 kts | 317° |
| 2026-05-06 05:07 | 31.72408 | 118.86372 | 63 ft | 19 kts | 58° |
| 2026-05-06 05:07 | 31.72483 | 118.86541 | 63 ft | 27 kts | 58° |
| 2026-05-06 05:07 | 31.72599 | 118.86771 | 63 ft | 37 kts | 60° |
| 2026-05-06 05:07 | 31.72720 | 118.86993 | 63 ft | 14 kts | 56° |
| 2026-05-06 05:08 | 31.72821 | 118.87035 | 63 ft | 17 kts | 25° |
| 2026-05-06 05:08 | 31.72945 | 118.87086 | 63 ft | 20 kts | 38° |
| 2026-05-06 05:08 | 31.72989 | 118.87115 | 63 ft | 6 kts | 11° |
| 2026-05-06 05:08 | 31.73018 | 118.87109 | 63 ft | 2 kts | 342° |
| 2026-05-06 05:09 | 31.73039 | 118.87099 | 63 ft | 1 kts | 333° |
| 2026-05-06 05:09 | 31.73060 | 118.87085 | 63 ft | 0 kts | 329° |
| 2026-05-06 05:09 | 31.73068 | 118.87079 | 63 ft | 0 kts | 329° |